首页
METAR-TAF:

METAR-TAF

机场 :

大瀑布城, 蒙大拿州, 美国

纬度: 47-28-24N, 经度: 111-22-56W, 海拔: 1120米

当前天气观测

该预报发布于1小时和3分钟前的14:53 UTC
风速4节,风向
温度 -2°C
湿度 69%
气压 1026 hPa
能見度: 16.1公里
阴天层高于3100英尺

METAR: KGTF 081453Z 09004KT 10SM OVC031 M02/M07 A3029 RMK AO2 SLP294 T10171067 51016

时间: 09:56 (15:56 UTC)

预报

该预报发布于4小时和33分钟前的11:23 UTC
预报有效从08日的 12点(UTC)到 09日的 12点(UTC)
风速6节,风向多变
能見度: 10公里
散云层高于1500英尺
阴天层高于4000英尺
从 08日的 1700点(UTC)
风速4节,风向多变
能見度: 10公里
少量云层高于8000英尺
散云层高于12000英尺

TAF: KGTF 081123Z 0812/0912 VRB06KT P6SM SCT015 OVC040 FM081700 VRB04KT P6SM FEW080 SCT120

超过4000个机场的气象观测和天气预报(METAR&TAF报告)。

可查询的气象台以黄色和红色小点在地图上表示。

将鼠标移到小点上方,可查看气象台名称。

然后点击查看天气观测和预报。

如需切换地图:点击带黑十字的绿色按钮放大地图;点击带横线的绿色按钮缩小地图;或者点击绿色箭头查看邻近地区的地图。


METAR-TAF: